タヒチ島 の空港の天気 - METARとTAF

タヒチ・ファアア国際空港 ( NTAA / PPT ) - フランス領ポリネシア タヒチ島
飛行場実況気象(Metar)
観測時間04/21 05:00 TAHT (04/21 15:00 UTC)
風向・風速南東 2m/s
視程10km以上
天気現象
なし
気温26℃
湿度84%
気圧1011hPa
METARNTAA 211500Z AUTO 13003KT 100V160 9999 NCD 26/23 Q1011 BECMG 04010KT
過去の天気等 Google飛行場航空写真 Wunderground天気予報

過去48時間のMETAR

飛行場予報(TAF)
発表時間: 4/21 01:00 TAHT (4/21 11:00 UTC)
予報対象時間: 21日2時 TAHT ~ 22日8時 TAHT
風向・風速不定 2m/s
視程10km以上
少しの雲 雲底高度 700m
全天の4割程度の雲 雲底高度 1370m
21日6時 TAHT ~ 21日8時 TAHT に徐々に
風向・風速北東 5m/s
全天の4割程度の雲 雲底高度 610m
全天の8割程度の雲 雲底高度 1520m
21日12時 TAHT ~ 22日2時 TAHT に 確率 40% で一時的に
視程3000m
天気現象しゅう雨
全天の4割程度の塔状積雲 雲底高度 550m
全天の8割程度の雲 雲底高度 1220m
21日12時 TAHT ~ 21日20時 TAHT に 確率 30% で一時的に
風向・風速不定 8m/s 瞬間風速 13m/s
視程2000m
天気現象雷雨
全天の4割程度の積乱雲 雲底高度 400m
全天を覆う雲 雲底高度 1070m
TAF NTAA 211100Z 2112/2218 VRB03KT 9999 FEW023 SCT045
BECMG 2116/2118 04010KT SCT020 BKN050
PROB40 TEMPO 2122/2212 3000 SHRA SCT018TCU BKN040
PROB30 TEMPO 2122/2206 VRB15G25KT 2000 TSRA SCT013CB OVC035